sensor_id;sensor_type;location;lat;lon;timestamp;P1;durP1;ratioP1;P2;durP2;ratioP2
17251;SDS011;8742;51.716;8.790;2024-01-27T00:00:51;19.40;;;3.80;;
17251;SDS011;8742;51.716;8.790;2024-01-27T00:03:18;13.07;;;3.10;;
17251;SDS011;8742;51.716;8.790;2024-01-27T00:05:45;25.37;;;4.07;;
17251;SDS011;8742;51.716;8.790;2024-01-27T00:08:13;23.37;;;4.83;;
17251;SDS011;8742;51.716;8.790;2024-01-27T00:10:40;28.63;;;4.30;;
17251;SDS011;8742;51.716;8.790;2024-01-27T00:13:07;35.47;;;4.00;;
17251;SDS011;8742;51.716;8.790;2024-01-27T00:15:34;18.10;;;3.80;;
17251;SDS011;8742;51.716;8.790;2024-01-27T00:18:01;17.10;;;3.30;;
17251;SDS011;8742;51.716;8.790;2024-01-27T00:20:28;21.03;;;4.10;;
17251;SDS011;8742;51.716;8.790;2024-01-27T00:22:55;32.80;;;4.67;;
17251;SDS011;8742;51.716;8.790;2024-01-27T00:25:23;25.73;;;4.53;;
17251;SDS011;8742;51.716;8.790;2024-01-27T00:27:50;20.33;;;4.60;;
17251;SDS011;8742;51.716;8.790;2024-01-27T00:30:17;32.30;;;3.97;;
17251;SDS011;8742;51.716;8.790;2024-01-27T00:32:43;24.67;;;4.37;;
17251;SDS011;8742;51.716;8.790;2024-01-27T00:35:10;18.73;;;3.67;;
17251;SDS011;8742;51.716;8.790;2024-01-27T00:37:39;23.03;;;4.00;;
17251;SDS011;8742;51.716;8.790;2024-01-27T00:40:07;26.77;;;4.03;;
17251;SDS011;8742;51.716;8.790;2024-01-27T00:42:36;20.00;;;4.17;;
17251;SDS011;8742;51.716;8.790;2024-01-27T00:45:04;24.73;;;4.43;;
17251;SDS011;8742;51.716;8.790;2024-01-27T00:47:31;22.20;;;4.27;;
17251;SDS011;8742;51.716;8.790;2024-01-27T00:49:58;23.63;;;4.37;;
17251;SDS011;8742;51.716;8.790;2024-01-27T00:52:26;24.80;;;4.87;;
17251;SDS011;8742;51.716;8.790;2024-01-27T00:54:53;26.20;;;4.53;;
17251;SDS011;8742;51.716;8.790;2024-01-27T00:57:19;15.37;;;4.50;;
17251;SDS011;8742;51.716;8.790;2024-01-27T00:59:47;19.73;;;4.70;;
17251;SDS011;8742;51.716;8.790;2024-01-27T01:02:14;26.03;;;4.03;;
17251;SDS011;8742;51.716;8.790;2024-01-27T01:04:41;23.63;;;4.10;;
17251;SDS011;8742;51.716;8.790;2024-01-27T01:07:13;16.70;;;3.87;;
17251;SDS011;8742;51.716;8.790;2024-01-27T01:09:40;17.23;;;3.73;;
17251;SDS011;8742;51.716;8.790;2024-01-27T01:12:07;36.53;;;5.10;;
17251;SDS011;8742;51.716;8.790;2024-01-27T01:14:34;29.83;;;5.10;;
17251;SDS011;8742;51.716;8.790;2024-01-27T01:17:03;26.20;;;5.27;;
17251;SDS011;8742;51.716;8.790;2024-01-27T01:19:30;34.03;;;5.90;;
17251;SDS011;8742;51.716;8.790;2024-01-27T01:21:57;27.87;;;4.97;;
17251;SDS011;8742;51.716;8.790;2024-01-27T01:24:24;28.70;;;4.93;;
17251;SDS011;8742;51.716;8.790;2024-01-27T01:26:50;33.37;;;5.60;;
17251;SDS011;8742;51.716;8.790;2024-01-27T01:29:17;22.37;;;5.40;;
17251;SDS011;8742;51.716;8.790;2024-01-27T01:31:44;28.83;;;5.40;;
17251;SDS011;8742;51.716;8.790;2024-01-27T01:34:12;19.60;;;4.60;;
17251;SDS011;8742;51.716;8.790;2024-01-27T01:36:39;27.17;;;4.97;;
17251;SDS011;8742;51.716;8.790;2024-01-27T01:39:06;21.70;;;5.23;;
17251;SDS011;8742;51.716;8.790;2024-01-27T01:41:33;30.80;;;5.37;;
17251;SDS011;8742;51.716;8.790;2024-01-27T01:44:00;30.30;;;5.27;;
17251;SDS011;8742;51.716;8.790;2024-01-27T01:46:27;18.87;;;5.40;;
17251;SDS011;8742;51.716;8.790;2024-01-27T01:48:54;23.87;;;5.50;;
17251;SDS011;8742;51.716;8.790;2024-01-27T01:51:22;27.40;;;5.73;;
17251;SDS011;8742;51.716;8.790;2024-01-27T01:53:49;28.77;;;5.57;;
17251;SDS011;8742;51.716;8.790;2024-01-27T01:56:18;26.37;;;5.90;;
17251;SDS011;8742;51.716;8.790;2024-01-27T01:58:45;33.07;;;6.20;;
17251;SDS011;8742;51.716;8.790;2024-01-27T02:01:11;18.97;;;6.00;;
17251;SDS011;8742;51.716;8.790;2024-01-27T02:03:40;28.70;;;6.30;;
17251;SDS011;8742;51.716;8.790;2024-01-27T02:06:17;28.87;;;6.53;;
17251;SDS011;8742;51.716;8.790;2024-01-27T02:08:45;28.53;;;7.80;;
17251;SDS011;8742;51.716;8.790;2024-01-27T02:11:12;25.93;;;7.37;;
17251;SDS011;8742;51.716;8.790;2024-01-27T02:13:39;31.63;;;7.10;;
17251;SDS011;8742;51.716;8.790;2024-01-27T02:16:06;36.20;;;8.43;;
17251;SDS011;8742;51.716;8.790;2024-01-27T02:18:33;44.67;;;9.40;;
17251;SDS011;8742;51.716;8.790;2024-01-27T02:21:00;28.00;;;8.10;;
17251;SDS011;8742;51.716;8.790;2024-01-27T02:23:27;41.80;;;10.60;;
17251;SDS011;8742;51.716;8.790;2024-01-27T02:25:55;27.43;;;7.03;;
17251;SDS011;8742;51.716;8.790;2024-01-27T02:28:24;37.83;;;9.13;;
17251;SDS011;8742;51.716;8.790;2024-01-27T02:30:52;28.00;;;6.77;;
17251;SDS011;8742;51.716;8.790;2024-01-27T02:33:19;36.80;;;8.27;;
17251;SDS011;8742;51.716;8.790;2024-01-27T02:35:46;30.27;;;8.20;;
17251;SDS011;8742;51.716;8.790;2024-01-27T02:38:13;26.53;;;7.40;;
17251;SDS011;8742;51.716;8.790;2024-01-27T02:40:44;27.97;;;7.60;;
17251;SDS011;8742;51.716;8.790;2024-01-27T02:43:15;36.23;;;8.30;;
17251;SDS011;8742;51.716;8.790;2024-01-27T02:45:42;28.17;;;7.77;;
17251;SDS011;8742;51.716;8.790;2024-01-27T02:48:09;32.93;;;9.33;;
17251;SDS011;8742;51.716;8.790;2024-01-27T02:50:36;29.37;;;8.07;;
17251;SDS011;8742;51.716;8.790;2024-01-27T02:53:03;30.70;;;8.13;;
17251;SDS011;8742;51.716;8.790;2024-01-27T02:55:33;34.10;;;8.67;;
17251;SDS011;8742;51.716;8.790;2024-01-27T02:57:59;33.57;;;8.43;;
17251;SDS011;8742;51.716;8.790;2024-01-27T03:00:27;34.97;;;9.63;;
17251;SDS011;8742;51.716;8.790;2024-01-27T03:02:54;27.67;;;8.33;;
17251;SDS011;8742;51.716;8.790;2024-01-27T03:05:23;26.73;;;8.23;;
17251;SDS011;8742;51.716;8.790;2024-01-27T03:07:50;33.23;;;8.07;;
17251;SDS011;8742;51.716;8.790;2024-01-27T03:10:16;31.13;;;8.60;;
17251;SDS011;8742;51.716;8.790;2024-01-27T03:12:43;41.23;;;8.67;;
17251;SDS011;8742;51.716;8.790;2024-01-27T03:15:10;29.17;;;8.20;;
17251;SDS011;8742;51.716;8.790;2024-01-27T03:17:39;34.20;;;8.10;;
17251;SDS011;8742;51.716;8.790;2024-01-27T03:20:06;41.43;;;9.27;;
17251;SDS011;8742;51.716;8.790;2024-01-27T03:22:34;30.90;;;9.67;;
17251;SDS011;8742;51.716;8.790;2024-01-27T03:25:01;30.67;;;9.17;;
17251;SDS011;8742;51.716;8.790;2024-01-27T03:27:28;38.83;;;8.83;;
17251;SDS011;8742;51.716;8.790;2024-01-27T03:29:58;38.03;;;8.70;;
17251;SDS011;8742;51.716;8.790;2024-01-27T03:32:26;38.53;;;8.93;;
17251;SDS011;8742;51.716;8.790;2024-01-27T03:34:54;34.07;;;9.10;;
17251;SDS011;8742;51.716;8.790;2024-01-27T03:37:21;32.97;;;8.73;;
17251;SDS011;8742;51.716;8.790;2024-01-27T03:39:48;34.03;;;9.37;;
17251;SDS011;8742;51.716;8.790;2024-01-27T03:42:15;35.03;;;9.23;;
17251;SDS011;8742;51.716;8.790;2024-01-27T03:44:42;22.60;;;8.97;;
17251;SDS011;8742;51.716;8.790;2024-01-27T03:47:09;41.83;;;9.70;;
17251;SDS011;8742;51.716;8.790;2024-01-27T03:49:36;24.93;;;8.80;;
17251;SDS011;8742;51.716;8.790;2024-01-27T03:52:04;36.83;;;9.50;;
17251;SDS011;8742;51.716;8.790;2024-01-27T03:54:31;32.40;;;8.90;;
17251;SDS011;8742;51.716;8.790;2024-01-27T03:56:58;27.57;;;9.53;;
17251;SDS011;8742;51.716;8.790;2024-01-27T03:59:25;32.67;;;9.50;;
17251;SDS011;8742;51.716;8.790;2024-01-27T04:01:53;33.63;;;8.77;;
17251;SDS011;8742;51.716;8.790;2024-01-27T04:04:20;30.47;;;9.33;;
17251;SDS011;8742;51.716;8.790;2024-01-27T04:06:47;25.93;;;9.43;;
17251;SDS011;8742;51.716;8.790;2024-01-27T04:09:15;23.40;;;9.00;;
17251;SDS011;8742;51.716;8.790;2024-01-27T04:11:42;32.73;;;9.33;;
17251;SDS011;8742;51.716;8.790;2024-01-27T04:14:09;31.93;;;9.80;;
17251;SDS011;8742;51.716;8.790;2024-01-27T04:16:36;32.87;;;9.67;;
17251;SDS011;8742;51.716;8.790;2024-01-27T04:19:02;33.40;;;9.80;;
17251;SDS011;8742;51.716;8.790;2024-01-27T04:21:29;37.00;;;10.20;;
17251;SDS011;8742;51.716;8.790;2024-01-27T04:23:56;30.33;;;9.50;;
17251;SDS011;8742;51.716;8.790;2024-01-27T04:26:24;25.47;;;9.30;;
17251;SDS011;8742;51.716;8.790;2024-01-27T04:28:51;64.63;;;22.67;;
17251;SDS011;8742;51.716;8.790;2024-01-27T04:31:18;101.63;;;33.43;;
17251;SDS011;8742;51.716;8.790;2024-01-27T04:33:45;50.87;;;17.03;;
17251;SDS011;8742;51.716;8.790;2024-01-27T04:36:12;60.17;;;18.50;;
17251;SDS011;8742;51.716;8.790;2024-01-27T04:38:39;59.43;;;18.07;;
17251;SDS011;8742;51.716;8.790;2024-01-27T04:41:05;60.90;;;16.97;;
17251;SDS011;8742;51.716;8.790;2024-01-27T04:43:33;44.97;;;14.40;;
17251;SDS011;8742;51.716;8.790;2024-01-27T04:46:00;38.80;;;13.33;;
17251;SDS011;8742;51.716;8.790;2024-01-27T04:48:27;42.60;;;14.13;;
17251;SDS011;8742;51.716;8.790;2024-01-27T04:50:54;33.57;;;12.70;;
17251;SDS011;8742;51.716;8.790;2024-01-27T04:53:21;42.93;;;13.97;;
17251;SDS011;8742;51.716;8.790;2024-01-27T04:55:48;41.77;;;13.87;;
17251;SDS011;8742;51.716;8.790;2024-01-27T04:58:15;42.50;;;13.90;;
17251;SDS011;8742;51.716;8.790;2024-01-27T05:00:43;40.30;;;13.07;;
17251;SDS011;8742;51.716;8.790;2024-01-27T05:03:10;47.37;;;13.07;;
17251;SDS011;8742;51.716;8.790;2024-01-27T05:05:40;37.10;;;12.77;;
17251;SDS011;8742;51.716;8.790;2024-01-27T05:08:07;51.07;;;14.03;;
17251;SDS011;8742;51.716;8.790;2024-01-27T05:10:34;30.87;;;12.67;;
17251;SDS011;8742;51.716;8.790;2024-01-27T05:13:01;34.00;;;13.50;;
17251;SDS011;8742;51.716;8.790;2024-01-27T05:15:28;35.73;;;13.27;;
17251;SDS011;8742;51.716;8.790;2024-01-27T05:17:56;47.40;;;13.70;;
17251;SDS011;8742;51.716;8.790;2024-01-27T05:20:23;46.00;;;14.70;;
17251;SDS011;8742;51.716;8.790;2024-01-27T05:22:50;35.63;;;12.83;;
17251;SDS011;8742;51.716;8.790;2024-01-27T05:25:17;37.87;;;13.57;;
17251;SDS011;8742;51.716;8.790;2024-01-27T05:27:43;31.97;;;12.50;;
17251;SDS011;8742;51.716;8.790;2024-01-27T05:30:11;37.07;;;12.97;;
17251;SDS011;8742;51.716;8.790;2024-01-27T05:32:38;45.07;;;14.13;;
17251;SDS011;8742;51.716;8.790;2024-01-27T05:35:07;39.53;;;12.10;;
17251;SDS011;8742;51.716;8.790;2024-01-27T05:37:34;39.10;;;13.37;;
17251;SDS011;8742;51.716;8.790;2024-01-27T05:40:01;41.93;;;11.90;;
17251;SDS011;8742;51.716;8.790;2024-01-27T05:42:28;41.40;;;13.00;;
17251;SDS011;8742;51.716;8.790;2024-01-27T05:44:55;40.23;;;12.30;;
17251;SDS011;8742;51.716;8.790;2024-01-27T05:47:22;42.80;;;13.17;;
17251;SDS011;8742;51.716;8.790;2024-01-27T05:49:49;31.97;;;12.63;;
17251;SDS011;8742;51.716;8.790;2024-01-27T05:52:17;33.63;;;12.57;;
17251;SDS011;8742;51.716;8.790;2024-01-27T05:54:44;45.87;;;12.90;;
17251;SDS011;8742;51.716;8.790;2024-01-27T05:57:10;55.37;;;13.23;;
17251;SDS011;8742;51.716;8.790;2024-01-27T05:59:37;42.40;;;13.07;;
17251;SDS011;8742;51.716;8.790;2024-01-27T06:02:04;43.57;;;14.10;;
17251;SDS011;8742;51.716;8.790;2024-01-27T06:04:31;36.33;;;14.90;;
17251;SDS011;8742;51.716;8.790;2024-01-27T06:09:41;43.00;;;14.00;;
17251;SDS011;8742;51.716;8.790;2024-01-27T06:12:08;37.33;;;12.07;;
17251;SDS011;8742;51.716;8.790;2024-01-27T06:14:35;38.40;;;13.00;;
17251;SDS011;8742;51.716;8.790;2024-01-27T06:17:03;41.03;;;13.47;;
17251;SDS011;8742;51.716;8.790;2024-01-27T06:19:30;31.83;;;11.93;;
17251;SDS011;8742;51.716;8.790;2024-01-27T06:21:57;35.13;;;12.37;;
17251;SDS011;8742;51.716;8.790;2024-01-27T06:24:24;42.07;;;12.77;;
17251;SDS011;8742;51.716;8.790;2024-01-27T06:26:52;29.33;;;12.17;;
17251;SDS011;8742;51.716;8.790;2024-01-27T06:29:25;38.70;;;12.50;;
17251;SDS011;8742;51.716;8.790;2024-01-27T06:31:54;43.67;;;13.90;;
17251;SDS011;8742;51.716;8.790;2024-01-27T06:34:21;51.67;;;15.43;;
17251;SDS011;8742;51.716;8.790;2024-01-27T06:36:47;59.17;;;17.77;;
17251;SDS011;8742;51.716;8.790;2024-01-27T06:39:14;49.77;;;15.90;;
17251;SDS011;8742;51.716;8.790;2024-01-27T06:41:41;54.13;;;14.93;;
17251;SDS011;8742;51.716;8.790;2024-01-27T06:44:09;37.67;;;15.17;;
17251;SDS011;8742;51.716;8.790;2024-01-27T06:46:36;48.67;;;16.17;;
17251;SDS011;8742;51.716;8.790;2024-01-27T06:49:03;44.83;;;15.37;;
17251;SDS011;8742;51.716;8.790;2024-01-27T06:51:30;45.93;;;17.63;;
17251;SDS011;8742;51.716;8.790;2024-01-27T06:53:57;49.93;;;15.17;;
17251;SDS011;8742;51.716;8.790;2024-01-27T06:56:24;35.23;;;14.73;;
17251;SDS011;8742;51.716;8.790;2024-01-27T06:58:51;59.77;;;16.30;;
17251;SDS011;8742;51.716;8.790;2024-01-27T07:01:19;55.70;;;15.70;;
17251;SDS011;8742;51.716;8.790;2024-01-27T07:03:46;46.47;;;15.30;;
17251;SDS011;8742;51.716;8.790;2024-01-27T07:06:13;41.53;;;14.60;;
17251;SDS011;8742;51.716;8.790;2024-01-27T07:08:39;39.27;;;13.97;;
17251;SDS011;8742;51.716;8.790;2024-01-27T07:11:06;39.63;;;13.90;;
17251;SDS011;8742;51.716;8.790;2024-01-27T07:13:33;44.40;;;12.93;;
17251;SDS011;8742;51.716;8.790;2024-01-27T07:16:00;44.97;;;14.43;;
17251;SDS011;8742;51.716;8.790;2024-01-27T07:18:28;42.30;;;13.83;;
17251;SDS011;8742;51.716;8.790;2024-01-27T07:20:55;42.27;;;13.60;;
17251;SDS011;8742;51.716;8.790;2024-01-27T07:23:24;52.83;;;12.07;;
17251;SDS011;8742;51.716;8.790;2024-01-27T07:25:51;41.07;;;12.07;;
17251;SDS011;8742;51.716;8.790;2024-01-27T07:28:18;51.07;;;13.77;;
17251;SDS011;8742;51.716;8.790;2024-01-27T07:30:44;44.63;;;13.20;;
17251;SDS011;8742;51.716;8.790;2024-01-27T07:33:11;36.43;;;12.27;;
17251;SDS011;8742;51.716;8.790;2024-01-27T07:35:39;45.57;;;12.60;;
17251;SDS011;8742;51.716;8.790;2024-01-27T07:38:06;39.70;;;12.33;;
17251;SDS011;8742;51.716;8.790;2024-01-27T07:40:33;38.60;;;12.43;;
17251;SDS011;8742;51.716;8.790;2024-01-27T07:43:00;32.23;;;12.23;;
17251;SDS011;8742;51.716;8.790;2024-01-27T07:45:27;32.67;;;12.07;;
17251;SDS011;8742;51.716;8.790;2024-01-27T07:47:54;36.70;;;12.03;;
17251;SDS011;8742;51.716;8.790;2024-01-27T07:50:21;42.23;;;12.87;;
17251;SDS011;8742;51.716;8.790;2024-01-27T07:52:50;49.47;;;13.70;;
17251;SDS011;8742;51.716;8.790;2024-01-27T07:55:17;52.67;;;14.13;;
17251;SDS011;8742;51.716;8.790;2024-01-27T07:57:43;39.27;;;12.80;;
17251;SDS011;8742;51.716;8.790;2024-01-27T08:00:11;44.07;;;13.97;;
17251;SDS011;8742;51.716;8.790;2024-01-27T08:02:38;36.00;;;13.47;;
17251;SDS011;8742;51.716;8.790;2024-01-27T08:05:05;47.73;;;14.20;;
17251;SDS011;8742;51.716;8.790;2024-01-27T08:07:34;39.40;;;14.03;;
17251;SDS011;8742;51.716;8.790;2024-01-27T08:10:05;47.53;;;13.57;;
17251;SDS011;8742;51.716;8.790;2024-01-27T08:12:36;40.00;;;14.43;;
17251;SDS011;8742;51.716;8.790;2024-01-27T08:15:03;52.13;;;14.50;;
17251;SDS011;8742;51.716;8.790;2024-01-27T08:17:30;48.70;;;14.80;;
17251;SDS011;8742;51.716;8.790;2024-01-27T08:19:57;44.07;;;15.13;;
17251;SDS011;8742;51.716;8.790;2024-01-27T08:22:24;49.30;;;15.13;;
17251;SDS011;8742;51.716;8.790;2024-01-27T08:24:51;40.93;;;14.63;;
17251;SDS011;8742;51.716;8.790;2024-01-27T08:27:19;41.77;;;13.70;;
17251;SDS011;8742;51.716;8.790;2024-01-27T08:29:46;54.00;;;14.63;;
17251;SDS011;8742;51.716;8.790;2024-01-27T08:32:13;41.43;;;14.73;;
17251;SDS011;8742;51.716;8.790;2024-01-27T08:34:40;43.47;;;12.77;;
17251;SDS011;8742;51.716;8.790;2024-01-27T08:37:13;53.17;;;12.23;;
17251;SDS011;8742;51.716;8.790;2024-01-27T08:39:41;36.90;;;10.90;;
17251;SDS011;8742;51.716;8.790;2024-01-27T08:42:08;49.20;;;10.87;;
17251;SDS011;8742;51.716;8.790;2024-01-27T08:44:36;43.60;;;10.30;;
17251;SDS011;8742;51.716;8.790;2024-01-27T08:47:03;33.30;;;9.00;;
17251;SDS011;8742;51.716;8.790;2024-01-27T08:49:30;27.97;;;8.23;;
17251;SDS011;8742;51.716;8.790;2024-01-27T08:51:57;38.53;;;9.13;;
17251;SDS011;8742;51.716;8.790;2024-01-27T08:54:24;39.97;;;7.70;;
17251;SDS011;8742;51.716;8.790;2024-01-27T08:56:51;40.50;;;7.33;;
17251;SDS011;8742;51.716;8.790;2024-01-27T08:59:18;29.70;;;6.97;;
17251;SDS011;8742;51.716;8.790;2024-01-27T09:01:46;14.50;;;5.37;;
17251;SDS011;8742;51.716;8.790;2024-01-27T09:04:13;17.03;;;4.83;;
17251;SDS011;8742;51.716;8.790;2024-01-27T09:06:39;25.23;;;5.00;;
17251;SDS011;8742;51.716;8.790;2024-01-27T09:09:06;23.43;;;5.37;;
17251;SDS011;8742;51.716;8.790;2024-01-27T09:11:34;22.40;;;5.90;;
17251;SDS011;8742;51.716;8.790;2024-01-27T09:14:00;22.00;;;5.00;;
17251;SDS011;8742;51.716;8.790;2024-01-27T09:16:30;20.40;;;4.93;;
17251;SDS011;8742;51.716;8.790;2024-01-27T09:18:58;20.50;;;4.87;;
17251;SDS011;8742;51.716;8.790;2024-01-27T09:21:25;17.60;;;4.93;;
17251;SDS011;8742;51.716;8.790;2024-01-27T09:23:55;23.10;;;5.43;;
17251;SDS011;8742;51.716;8.790;2024-01-27T09:26:22;14.83;;;4.37;;
17251;SDS011;8742;51.716;8.790;2024-01-27T09:28:51;18.00;;;4.53;;
17251;SDS011;8742;51.716;8.790;2024-01-27T09:31:20;15.40;;;4.80;;
17251;SDS011;8742;51.716;8.790;2024-01-27T09:33:48;20.20;;;5.27;;
17251;SDS011;8742;51.716;8.790;2024-01-27T09:36:20;12.00;;;4.13;;
17251;SDS011;8742;51.716;8.790;2024-01-27T09:38:47;17.70;;;4.63;;
17251;SDS011;8742;51.716;8.790;2024-01-27T09:41:14;13.40;;;4.33;;
17251;SDS011;8742;51.716;8.790;2024-01-27T09:43:42;22.67;;;4.90;;
17251;SDS011;8742;51.716;8.790;2024-01-27T09:46:10;17.60;;;4.40;;
17251;SDS011;8742;51.716;8.790;2024-01-27T09:48:37;17.87;;;4.73;;
17251;SDS011;8742;51.716;8.790;2024-01-27T09:51:04;18.30;;;4.97;;
17251;SDS011;8742;51.716;8.790;2024-01-27T09:53:34;14.20;;;4.37;;
17251;SDS011;8742;51.716;8.790;2024-01-27T09:56:04;18.03;;;4.47;;
17251;SDS011;8742;51.716;8.790;2024-01-27T09:58:33;19.53;;;4.90;;
17251;SDS011;8742;51.716;8.790;2024-01-27T10:01:03;10.77;;;4.00;;
17251;SDS011;8742;51.716;8.790;2024-01-27T10:03:32;16.90;;;4.53;;
17251;SDS011;8742;51.716;8.790;2024-01-27T10:06:02;15.83;;;4.67;;
17251;SDS011;8742;51.716;8.790;2024-01-27T10:08:30;17.10;;;4.50;;
17251;SDS011;8742;51.716;8.790;2024-01-27T10:10:58;13.07;;;4.47;;
17251;SDS011;8742;51.716;8.790;2024-01-27T10:13:25;16.00;;;4.83;;
17251;SDS011;8742;51.716;8.790;2024-01-27T10:16:01;17.60;;;4.50;;
17251;SDS011;8742;51.716;8.790;2024-01-27T10:18:28;17.43;;;4.63;;
17251;SDS011;8742;51.716;8.790;2024-01-27T10:20:56;14.67;;;4.27;;
17251;SDS011;8742;51.716;8.790;2024-01-27T10:23:23;11.13;;;4.43;;
17251;SDS011;8742;51.716;8.790;2024-01-27T10:25:50;15.33;;;4.87;;
17251;SDS011;8742;51.716;8.790;2024-01-27T10:28:19;16.80;;;4.60;;
17251;SDS011;8742;51.716;8.790;2024-01-27T10:30:47;17.10;;;4.83;;
17251;SDS011;8742;51.716;8.790;2024-01-27T10:33:14;17.43;;;5.07;;
17251;SDS011;8742;51.716;8.790;2024-01-27T10:35:41;18.60;;;5.00;;
17251;SDS011;8742;51.716;8.790;2024-01-27T10:38:09;19.80;;;4.73;;
17251;SDS011;8742;51.716;8.790;2024-01-27T10:40:36;21.60;;;4.63;;
17251;SDS011;8742;51.716;8.790;2024-01-27T10:43:03;18.70;;;4.30;;
17251;SDS011;8742;51.716;8.790;2024-01-27T10:45:36;19.20;;;4.90;;
17251;SDS011;8742;51.716;8.790;2024-01-27T10:48:04;18.53;;;5.10;;
17251;SDS011;8742;51.716;8.790;2024-01-27T10:50:34;18.17;;;4.87;;
17251;SDS011;8742;51.716;8.790;2024-01-27T10:53:03;19.70;;;4.97;;
17251;SDS011;8742;51.716;8.790;2024-01-27T10:55:34;17.70;;;5.20;;
17251;SDS011;8742;51.716;8.790;2024-01-27T10:58:03;28.80;;;5.13;;
17251;SDS011;8742;51.716;8.790;2024-01-27T11:00:30;20.10;;;5.57;;
17251;SDS011;8742;51.716;8.790;2024-01-27T11:03:01;14.73;;;5.23;;
17251;SDS011;8742;51.716;8.790;2024-01-27T11:05:31;15.50;;;4.63;;
17251;SDS011;8742;51.716;8.790;2024-01-27T11:08:02;17.33;;;4.70;;
17251;SDS011;8742;51.716;8.790;2024-01-27T11:10:30;17.60;;;5.20;;
17251;SDS011;8742;51.716;8.790;2024-01-27T11:13:01;16.30;;;5.13;;
17251;SDS011;8742;51.716;8.790;2024-01-27T11:15:28;23.20;;;5.30;;
17251;SDS011;8742;51.716;8.790;2024-01-27T11:17:56;14.87;;;4.50;;
17251;SDS011;8742;51.716;8.790;2024-01-27T11:20:26;16.87;;;5.30;;
17251;SDS011;8742;51.716;8.790;2024-01-27T11:22:53;16.17;;;4.87;;
17251;SDS011;8742;51.716;8.790;2024-01-27T11:25:22;21.07;;;4.80;;
17251;SDS011;8742;51.716;8.790;2024-01-27T11:27:49;15.77;;;5.13;;
17251;SDS011;8742;51.716;8.790;2024-01-27T11:30:27;16.03;;;5.33;;
17251;SDS011;8742;51.716;8.790;2024-01-27T11:32:55;12.47;;;4.67;;
17251;SDS011;8742;51.716;8.790;2024-01-27T11:35:22;19.47;;;5.07;;
17251;SDS011;8742;51.716;8.790;2024-01-27T11:37:51;18.60;;;5.20;;
17251;SDS011;8742;51.716;8.790;2024-01-27T11:40:18;16.57;;;4.67;;
17251;SDS011;8742;51.716;8.790;2024-01-27T11:42:53;26.63;;;5.10;;
17251;SDS011;8742;51.716;8.790;2024-01-27T11:45:20;18.40;;;5.00;;
17251;SDS011;8742;51.716;8.790;2024-01-27T11:47:47;14.23;;;4.30;;
17251;SDS011;8742;51.716;8.790;2024-01-27T11:50:14;22.47;;;4.90;;
17251;SDS011;8742;51.716;8.790;2024-01-27T11:52:43;17.57;;;4.63;;
17251;SDS011;8742;51.716;8.790;2024-01-27T11:55:12;19.20;;;4.90;;
17251;SDS011;8742;51.716;8.790;2024-01-27T11:57:43;16.93;;;4.30;;
17251;SDS011;8742;51.716;8.790;2024-01-27T12:00:10;11.67;;;4.10;;
17251;SDS011;8742;51.716;8.790;2024-01-27T12:02:37;16.00;;;5.13;;
17251;SDS011;8742;51.716;8.790;2024-01-27T12:05:05;18.87;;;4.13;;
17251;SDS011;8742;51.716;8.790;2024-01-27T12:07:32;16.97;;;4.83;;
17251;SDS011;8742;51.716;8.790;2024-01-27T12:09:59;12.23;;;4.30;;
17251;SDS011;8742;51.716;8.790;2024-01-27T12:12:28;13.47;;;3.80;;
17251;SDS011;8742;51.716;8.790;2024-01-27T12:14:54;12.10;;;4.53;;
17251;SDS011;8742;51.716;8.790;2024-01-27T12:17:21;15.83;;;4.20;;
17251;SDS011;8742;51.716;8.790;2024-01-27T12:19:49;18.03;;;5.20;;
17251;SDS011;8742;51.716;8.790;2024-01-27T12:22:21;14.50;;;4.63;;
17251;SDS011;8742;51.716;8.790;2024-01-27T12:24:49;12.57;;;4.10;;
17251;SDS011;8742;51.716;8.790;2024-01-27T12:27:16;15.63;;;4.17;;
17251;SDS011;8742;51.716;8.790;2024-01-27T12:29:45;10.93;;;4.27;;
17251;SDS011;8742;51.716;8.790;2024-01-27T12:32:13;14.80;;;4.10;;
17251;SDS011;8742;51.716;8.790;2024-01-27T12:34:40;12.00;;;4.30;;
17251;SDS011;8742;51.716;8.790;2024-01-27T12:37:08;13.70;;;3.83;;
17251;SDS011;8742;51.716;8.790;2024-01-27T12:39:36;13.53;;;3.80;;
17251;SDS011;8742;51.716;8.790;2024-01-27T12:42:04;13.30;;;4.40;;
17251;SDS011;8742;51.716;8.790;2024-01-27T12:44:31;11.73;;;4.37;;
17251;SDS011;8742;51.716;8.790;2024-01-27T12:46:59;12.90;;;3.97;;
17251;SDS011;8742;51.716;8.790;2024-01-27T12:49:26;18.80;;;4.20;;
17251;SDS011;8742;51.716;8.790;2024-01-27T12:51:53;17.93;;;4.20;;
17251;SDS011;8742;51.716;8.790;2024-01-27T12:54:20;19.07;;;4.33;;
17251;SDS011;8742;51.716;8.790;2024-01-27T12:56:46;9.83;;;3.63;;
17251;SDS011;8742;51.716;8.790;2024-01-27T12:59:13;19.30;;;4.20;;
17251;SDS011;8742;51.716;8.790;2024-01-27T13:01:40;11.33;;;3.80;;
17251;SDS011;8742;51.716;8.790;2024-01-27T13:04:07;11.23;;;4.00;;
17251;SDS011;8742;51.716;8.790;2024-01-27T13:06:34;15.73;;;3.63;;
17251;SDS011;8742;51.716;8.790;2024-01-27T13:09:02;10.90;;;4.10;;
17251;SDS011;8742;51.716;8.790;2024-01-27T13:11:29;18.10;;;4.27;;
17251;SDS011;8742;51.716;8.790;2024-01-27T13:13:56;17.77;;;3.53;;
17251;SDS011;8742;51.716;8.790;2024-01-27T13:16:23;17.40;;;3.90;;
17251;SDS011;8742;51.716;8.790;2024-01-27T13:18:50;18.03;;;3.93;;
17251;SDS011;8742;51.716;8.790;2024-01-27T13:21:18;10.50;;;3.20;;
17251;SDS011;8742;51.716;8.790;2024-01-27T13:23:45;18.43;;;3.90;;
17251;SDS011;8742;51.716;8.790;2024-01-27T13:26:12;9.70;;;3.50;;
17251;SDS011;8742;51.716;8.790;2024-01-27T13:28:39;14.97;;;3.57;;
17251;SDS011;8742;51.716;8.790;2024-01-27T13:31:06;10.93;;;3.40;;
17251;SDS011;8742;51.716;8.790;2024-01-27T13:33:32;14.07;;;3.27;;
17251;SDS011;8742;51.716;8.790;2024-01-27T13:36:00;15.83;;;3.10;;
17251;SDS011;8742;51.716;8.790;2024-01-27T13:38:28;14.50;;;3.57;;
17251;SDS011;8742;51.716;8.790;2024-01-27T13:40:55;14.57;;;3.13;;
17251;SDS011;8742;51.716;8.790;2024-01-27T13:43:22;12.93;;;3.13;;
17251;SDS011;8742;51.716;8.790;2024-01-27T13:45:49;13.77;;;3.30;;
17251;SDS011;8742;51.716;8.790;2024-01-27T13:48:16;10.90;;;3.33;;
17251;SDS011;8742;51.716;8.790;2024-01-27T13:50:43;10.47;;;2.67;;
17251;SDS011;8742;51.716;8.790;2024-01-27T13:53:10;17.20;;;3.43;;
17251;SDS011;8742;51.716;8.790;2024-01-27T13:55:39;17.17;;;3.60;;
17251;SDS011;8742;51.716;8.790;2024-01-27T13:58:07;9.63;;;3.13;;
17251;SDS011;8742;51.716;8.790;2024-01-27T14:00:34;16.40;;;3.70;;
17251;SDS011;8742;51.716;8.790;2024-01-27T14:03:01;10.20;;;3.43;;
17251;SDS011;8742;51.716;8.790;2024-01-27T14:05:29;18.03;;;3.63;;
17251;SDS011;8742;51.716;8.790;2024-01-27T14:07:56;9.20;;;2.97;;
17251;SDS011;8742;51.716;8.790;2024-01-27T14:10:22;17.27;;;3.83;;
17251;SDS011;8742;51.716;8.790;2024-01-27T14:12:51;12.70;;;4.27;;
17251;SDS011;8742;51.716;8.790;2024-01-27T14:15:18;15.90;;;3.77;;
17251;SDS011;8742;51.716;8.790;2024-01-27T14:17:45;18.17;;;3.63;;
17251;SDS011;8742;51.716;8.790;2024-01-27T14:20:12;11.27;;;2.90;;
17251;SDS011;8742;51.716;8.790;2024-01-27T14:22:39;12.27;;;2.93;;
17251;SDS011;8742;51.716;8.790;2024-01-27T14:25:06;17.17;;;3.47;;
17251;SDS011;8742;51.716;8.790;2024-01-27T14:27:34;12.43;;;2.83;;
17251;SDS011;8742;51.716;8.790;2024-01-27T14:30:03;17.10;;;3.27;;
17251;SDS011;8742;51.716;8.790;2024-01-27T14:32:31;16.17;;;3.30;;
17251;SDS011;8742;51.716;8.790;2024-01-27T14:34:58;11.07;;;2.57;;
17251;SDS011;8742;51.716;8.790;2024-01-27T14:37:24;19.80;;;3.63;;
17251;SDS011;8742;51.716;8.790;2024-01-27T14:39:51;12.50;;;3.80;;
17251;SDS011;8742;51.716;8.790;2024-01-27T14:42:18;16.07;;;4.10;;
17251;SDS011;8742;51.716;8.790;2024-01-27T14:44:45;14.20;;;3.70;;
17251;SDS011;8742;51.716;8.790;2024-01-27T14:47:15;13.03;;;3.17;;